KLBF

North Platte

Airport
ICAO code
KLBF
Summary
ICAO Region
NAM
ICAO Territory
Location

North Platte, Lincoln County, Nebraska,

Coordinates
41° 7' 34" N , 100° 41' 2" W
KCC
Metar
Observation
KLBF 260253Z AUTO 00000KT 10SM CLR 12/05 A3021 RMK AO2 SLP224 T01170050 53008
Station
North Platte, North Platte Regional Airport
Date/Time
2022-09-26 02:53:00
Wind direction
Wind speed
00 kts
Lowest cloud amount
n/a
Temperature
11.7°C
Dew point
5°C
Humidity
63%
Weather condition
n/a

Description

North Platte Regional Airport, also known as Lee Bird Field, is a public use airport located 3 nm east of the central business district of North Platte, a city in Lincoln County, Nebraska, United States.

Climatology

Humid continental climate (Köppen climate classification Dfa) - characterized by four seasons: cold, windy, snowy winters, mild springs, hot, humid summers, and crisp and relatively short autumns. Precipitation reaches its lowest in January and February and peaks in summer and latter half of spring.

Runways

Designator Length Width Surface Rops
17/35 1352 30 ASP Yes/Yes
12/30 2438 46 CON Yes/Yes

Airport map

Aerial View

SKYbrary Partners:

Safety knowledge contributed by: